createdAt,value
2023-01-26T00:00:25.587Z,14.60
2023-01-26T00:05:27.999Z,17.70
2023-01-26T00:10:30.542Z,15.33
2023-01-26T00:15:34.148Z,20.80
2023-01-26T00:20:36.857Z,17.40
2023-01-26T00:25:42.224Z,18.97
2023-01-26T00:30:44.918Z,19.30
2023-01-26T00:35:55.277Z,21.97
2023-01-26T00:40:57.692Z,20.20
2023-01-26T00:46:00.146Z,19.27
2023-01-26T00:51:02.594Z,20.10
2023-01-26T00:56:05.373Z,18.03
2023-01-26T01:01:09.090Z,19.73
2023-01-26T01:06:11.488Z,19.73
2023-01-26T01:11:14.074Z,19.60
2023-01-26T01:16:17.512Z,15.93
2023-01-26T01:21:21.965Z,19.03
2023-01-26T01:26:24.833Z,20.07
2023-01-26T01:31:29.434Z,15.80
2023-01-26T01:36:31.936Z,15.63
2023-01-26T01:41:34.441Z,16.93
2023-01-26T01:46:38.275Z,17.10
2023-01-26T01:51:45.364Z,14.47
2023-01-26T01:56:53.930Z,18.70
2023-01-26T02:01:57.228Z,18.87
2023-01-26T02:07:00.856Z,15.00
2023-01-26T02:12:06.473Z,15.47
2023-01-26T02:17:10.118Z,17.77
2023-01-26T02:22:40.839Z,19.47
2023-01-26T02:27:43.638Z,19.13
2023-01-26T02:32:46.817Z,15.30
2023-01-26T02:37:50.512Z,17.17
2023-01-26T02:42:55.227Z,14.77
2023-01-26T02:47:58.056Z,16.87
2023-01-26T02:53:02.175Z,16.97
2023-01-26T02:58:06.742Z,15.87
2023-01-26T03:03:16.642Z,14.40
2023-01-26T03:08:19.384Z,15.73
2023-01-26T03:13:22.249Z,13.20
2023-01-26T03:18:43.388Z,15.23
2023-01-26T03:24:05.272Z,13.23
2023-01-26T03:29:08.742Z,14.17
2023-01-26T03:34:12.048Z,14.97
2023-01-26T03:39:34.554Z,12.77
2023-01-26T03:44:56.155Z,11.27
2023-01-26T03:50:17.691Z,13.23
2023-01-26T03:55:38.982Z,12.43
2023-01-26T04:00:41.588Z,12.57
2023-01-26T04:06:15.793Z,12.73
2023-01-26T04:11:21.754Z,14.60
2023-01-26T04:16:43.468Z,12.13
2023-01-26T04:21:45.907Z,11.07
2023-01-26T04:26:51.422Z,12.30
2023-01-26T04:31:59.015Z,12.53
2023-01-26T04:37:02.960Z,11.63
2023-01-26T04:42:17.782Z,13.93
2023-01-26T04:47:21.119Z,10.83
2023-01-26T04:52:24.022Z,9.27
2023-01-26T04:57:30.066Z,12.03
2023-01-26T05:02:34.043Z,11.63
2023-01-26T05:07:36.619Z,11.80
2023-01-26T05:12:42.846Z,11.37
2023-01-26T05:18:00.656Z,13.40
2023-01-26T05:23:12.225Z,11.37
2023-01-26T05:28:35.548Z,11.63
2023-01-26T05:33:38.147Z,9.83
2023-01-26T05:38:41.908Z,11.97
2023-01-26T05:43:45.343Z,9.67
2023-01-26T05:49:05.583Z,9.83
2023-01-26T05:54:08.646Z,8.87
2023-01-26T05:59:11.523Z,9.47
2023-01-26T06:04:14.128Z,9.23
2023-01-26T06:09:27.764Z,8.03
2023-01-26T06:14:39.288Z,10.00
2023-01-26T06:19:42.551Z,9.23
2023-01-26T06:24:46.308Z,10.37
2023-01-26T06:29:49.209Z,10.43
2023-01-26T06:34:53.678Z,9.73
2023-01-26T06:39:57.370Z,10.57
2023-01-26T06:44:59.836Z,8.67
2023-01-26T06:50:02.384Z,9.83
2023-01-26T06:55:15.294Z,9.93
2023-01-26T07:00:22.952Z,11.90
2023-01-26T07:05:40.557Z,11.37
2023-01-26T07:10:42.998Z,10.47
2023-01-26T07:15:45.429Z,10.03
2023-01-26T07:20:47.922Z,10.97
2023-01-26T07:25:50.524Z,7.67
2023-01-26T07:30:57.391Z,9.00
2023-01-26T07:36:00.723Z,10.20
2023-01-26T07:41:11.870Z,11.57
2023-01-26T07:46:14.353Z,10.27
2023-01-26T07:51:17.169Z,9.77
2023-01-26T07:56:20.838Z,10.53
2023-01-26T08:01:23.776Z,9.47
2023-01-26T08:06:26.315Z,11.23
2023-01-26T08:11:28.792Z,7.97
2023-01-26T08:16:31.617Z,8.97
2023-01-26T08:21:34.203Z,10.10
2023-01-26T08:26:36.802Z,7.37
2023-01-26T08:31:39.391Z,8.30
2023-01-26T08:36:41.882Z,8.33
2023-01-26T08:41:44.275Z,7.73
2023-01-26T08:46:46.826Z,8.93
2023-01-26T08:51:49.557Z,10.47
2023-01-26T08:56:53.533Z,8.20
2023-01-26T09:01:56.019Z,9.17
2023-01-26T09:06:58.507Z,9.17
2023-01-26T09:12:01.049Z,8.77
2023-01-26T09:17:03.513Z,8.50
2023-01-26T09:22:05.982Z,8.17
2023-01-26T09:27:10.147Z,7.60
2023-01-26T09:32:12.598Z,10.10
2023-01-26T09:37:15.298Z,7.43
2023-01-26T09:42:48.438Z,6.97
2023-01-26T09:48:06.423Z,9.27
2023-01-26T09:53:34.219Z,9.07
2023-01-26T09:58:40.204Z,18.03
2023-01-26T10:03:50.528Z,8.90
2023-01-26T10:08:54.920Z,10.50
2023-01-26T10:14:18.910Z,7.17
2023-01-26T10:19:34.273Z,6.57
2023-01-26T10:24:37.229Z,7.10
2023-01-26T10:29:39.697Z,6.67
2023-01-26T10:34:42.484Z,6.07
2023-01-26T10:40:07.621Z,7.80
2023-01-26T10:45:27.534Z,6.47
2023-01-26T10:50:31.966Z,7.60
2023-01-26T10:55:37.360Z,6.50
2023-01-26T11:00:41.156Z,6.17
2023-01-26T11:05:46.451Z,9.00
2023-01-26T11:10:53.476Z,6.60
2023-01-26T11:16:04.795Z,7.07
2023-01-26T11:21:17.342Z,6.33
2023-01-26T11:26:51.523Z,7.23
2023-01-26T11:32:04.729Z,7.53
2023-01-26T11:37:32.161Z,7.63
2023-01-26T11:43:16.889Z,7.13
2023-01-26T11:48:45.261Z,7.70
2023-01-26T11:54:25.289Z,7.87
2023-01-26T11:59:42.668Z,9.87
2023-01-26T12:04:48.150Z,8.33
2023-01-26T12:09:53.047Z,7.53
2023-01-26T12:15:27.661Z,6.00
2023-01-26T12:20:40.304Z,6.43
2023-01-26T12:25:51.849Z,7.37
2023-01-26T12:31:14.291Z,8.33
2023-01-26T12:36:27.326Z,7.97
2023-01-26T12:41:59.008Z,8.10
2023-01-26T12:47:30.543Z,8.17
2023-01-26T12:52:39.068Z,6.40
2023-01-26T12:57:50.962Z,7.87
2023-01-26T13:03:04.225Z,7.23
2023-01-26T13:08:31.117Z,8.20
2023-01-26T13:13:55.140Z,7.53
2023-01-26T13:18:59.597Z,7.23
2023-01-26T13:24:02.427Z,7.17
2023-01-26T13:29:31.752Z,7.33
2023-01-26T13:35:00.550Z,7.33
2023-01-26T13:40:14.503Z,6.70
2023-01-26T13:45:35.211Z,8.63
2023-01-26T13:50:37.962Z,6.97
2023-01-26T13:55:42.343Z,7.80
2023-01-26T14:00:59.851Z,7.93
2023-01-26T14:06:33.532Z,8.37
2023-01-26T14:11:36.669Z,9.70
2023-01-26T14:16:39.386Z,8.27
2023-01-26T14:21:49.792Z,10.67
2023-01-26T14:26:52.450Z,10.27
2023-01-26T14:31:58.526Z,11.93
2023-01-26T14:37:16.933Z,10.23
2023-01-26T14:42:20.663Z,8.53
2023-01-26T14:47:28.442Z,8.93
2023-01-26T14:52:39.879Z,7.57
2023-01-26T14:57:42.516Z,9.43
2023-01-26T15:02:48.227Z,5.77
2023-01-26T15:07:59.064Z,7.00
2023-01-26T15:13:18.435Z,9.53
2023-01-26T15:18:21.983Z,8.83
2023-01-26T15:23:31.168Z,10.43
2023-01-26T15:28:34.533Z,9.20
2023-01-26T15:33:48.187Z,8.73
2023-01-26T15:38:55.475Z,10.47
2023-01-26T15:43:59.602Z,9.97
2023-01-26T15:49:02.010Z,8.07
2023-01-26T15:54:05.284Z,8.03
2023-01-26T15:59:07.913Z,10.13
2023-01-26T16:04:13.625Z,10.30
2023-01-26T16:09:16.074Z,7.80
2023-01-26T16:14:18.831Z,11.47
2023-01-26T16:23:59.017Z,10.40
2023-01-26T16:29:01.569Z,10.47
2023-01-26T16:34:04.445Z,9.43
2023-01-26T16:39:06.838Z,9.47
2023-01-26T16:44:14.607Z,9.83
2023-01-26T16:49:17.093Z,10.03
2023-01-26T16:54:19.677Z,10.63
2023-01-26T16:59:22.148Z,7.90
2023-01-26T17:04:25.051Z,8.13
2023-01-26T17:09:28.672Z,6.90
2023-01-26T17:14:31.130Z,7.97
2023-01-26T17:19:33.628Z,8.90
2023-01-26T17:24:36.115Z,7.43
2023-01-26T17:29:41.068Z,7.30
2023-01-26T17:34:44.098Z,8.17
2023-01-26T17:39:46.505Z,6.27
2023-01-26T17:44:48.861Z,7.23
2023-01-26T17:49:51.343Z,7.50
2023-01-26T17:54:54.253Z,7.57
2023-01-26T17:59:57.604Z,5.20
2023-01-26T18:05:00.056Z,6.67
2023-01-26T18:10:03.376Z,8.10
2023-01-26T18:15:06.372Z,6.43
2023-01-26T18:20:09.534Z,6.67
2023-01-26T18:25:12.285Z,6.07
2023-01-26T18:30:15.161Z,5.50
2023-01-26T18:35:18.050Z,7.07
2023-01-26T18:40:20.756Z,7.37
2023-01-26T18:45:24.097Z,6.67
2023-01-26T18:50:26.839Z,7.23
2023-01-26T18:55:29.365Z,7.27
2023-01-26T19:00:31.850Z,7.57
2023-01-26T19:05:34.444Z,8.57
2023-01-26T19:10:40.482Z,7.63
2023-01-26T19:15:49.827Z,8.20
2023-01-26T19:21:00.338Z,9.10
2023-01-26T19:26:08.708Z,8.83
2023-01-26T19:31:11.847Z,7.87
2023-01-26T19:36:14.448Z,7.73
2023-01-26T19:41:17.778Z,9.50
2023-01-26T19:46:21.094Z,8.37
2023-01-26T19:51:27.474Z,9.03
2023-01-26T19:56:32.655Z,10.73
2023-01-26T20:01:35.852Z,8.80
2023-01-26T20:06:38.723Z,10.13
2023-01-26T20:11:41.296Z,7.90
2023-01-26T20:16:43.840Z,8.43
2023-01-26T20:21:46.328Z,6.83
2023-01-26T20:26:49.186Z,7.40
2023-01-26T20:31:51.896Z,9.83
2023-01-26T20:37:00.266Z,8.17
2023-01-26T20:42:02.776Z,8.20
2023-01-26T20:47:05.251Z,7.27
2023-01-26T20:52:07.971Z,9.00
2023-01-26T20:57:10.461Z,9.07
2023-01-26T21:02:15.185Z,9.00
2023-01-26T21:07:17.759Z,8.87
2023-01-26T21:12:20.282Z,7.63
2023-01-26T21:17:23.182Z,7.80
2023-01-26T21:22:25.871Z,9.50
2023-01-26T21:27:28.640Z,8.43
2023-01-26T21:32:31.164Z,9.13
2023-01-26T21:37:33.583Z,9.40
2023-01-26T21:42:36.148Z,8.90
2023-01-26T21:47:38.567Z,9.70
2023-01-26T21:52:59.222Z,10.67
2023-01-26T21:58:20.087Z,8.37
2023-01-26T22:03:22.574Z,10.30
2023-01-26T22:08:25.368Z,9.83
2023-01-26T22:13:28.441Z,10.30
2023-01-26T22:18:31.072Z,11.07
2023-01-26T22:23:38.248Z,10.67
2023-01-26T22:28:42.023Z,9.97
2023-01-26T22:33:44.446Z,11.53
2023-01-26T22:38:47.750Z,12.67
2023-01-26T22:43:54.414Z,9.97
2023-01-26T22:48:58.255Z,11.07
2023-01-26T22:54:00.888Z,9.53
2023-01-26T22:59:03.463Z,9.70
2023-01-26T23:04:07.430Z,10.10
2023-01-26T23:09:09.895Z,8.57
2023-01-26T23:14:12.312Z,11.03
2023-01-26T23:19:14.761Z,11.00
2023-01-26T23:24:17.293Z,10.00
2023-01-26T23:29:19.884Z,9.73
2023-01-26T23:34:22.472Z,12.37
2023-01-26T23:39:25.262Z,12.10
2023-01-26T23:44:27.757Z,13.07
2023-01-26T23:49:30.374Z,12.10
2023-01-26T23:54:32.844Z,9.53
2023-01-26T23:59:35.266Z,11.03
